Terminal Aerodrome Forecast
Issued by NWS Louisville, KY

Home | Current Version | Previous Version | Text Only | Print | Product List | Glossary On
Versions: 1 2 3 4 5 6 7 8 9 10 11 12 13 14 15
365
FTUS43 KLMK 210520
TAFLEX
TAF
KLEX 210520Z 2106/2206 23008KT P6SM VCSH SCT009 SCT090 BKN250
      TEMPO 2106/2110 5SM BR BKN009
     FM211000 25005KT 5SM BR BKN009
     FM211400 29008KT P6SM SCT015 BKN025
     FM211700 29011KT P6SM SCT035
     FM220000 30003KT P6SM SKC=

USA.gov is the U.S. government's official web portal to all federal, state and local government web resources and services.